VOZ1498 YBHM-YBBN
Flight info
| Callsign | VOZ1498 |
|---|---|
| Flight time | N/A |
| Altitude | 37000 |
| Route | OVRON B462 MK V153 MUNAR/N0457F370 Y61 RUROX Y177 BN |
| Aircraft | B738/M-SDE2E3FGHIRWXY/LB1 |
Departure
| Time | N/A |
|---|---|
| Airport | Hamilton Island Airport (YBHM) |
Arrival
| Time | 2026-04-28 19:27 |
|---|---|
| Airport | Brisbane International Airport (YBBN) |
| Time | Latitude | Longitude | Altitude | Speed | Heading |
|---|---|---|---|---|---|
| 2026-04-28 18:44 | -24.07727 | 150.38737 | 37117 ft | 469 kts | 164° |
| 2026-04-28 18:45 | -24.13791 | 150.41386 | 37103 ft | 469 kts | 164° |
| 2026-04-28 18:45 | -24.19859 | 150.44040 | 37105 ft | 470 kts | 164° |
| 2026-04-28 18:46 | -24.25926 | 150.46696 | 37123 ft | 470 kts | 165° |
| 2026-04-28 18:46 | -24.32006 | 150.49361 | 37108 ft | 471 kts | 165° |
| 2026-04-28 18:47 | -24.38092 | 150.52030 | 37128 ft | 472 kts | 165° |
| 2026-04-28 18:47 | -24.44192 | 150.54710 | 37124 ft | 471 kts | 165° |
| 2026-04-28 18:48 | -24.50236 | 150.57534 | 37111 ft | 478 kts | 157° |
| 2026-04-28 18:48 | -24.55866 | 150.61525 | 37115 ft | 482 kts | 152° |
| 2026-04-28 18:49 | -24.60469 | 150.64978 | 37132 ft | 482 kts | 152° |
| 2026-04-28 18:49 | -24.66920 | 150.69774 | 37126 ft | 481 kts | 152° |
| 2026-04-28 18:50 | -24.72487 | 150.73860 | 37132 ft | 481 kts | 153° |
| 2026-04-28 18:50 | -24.78061 | 150.77938 | 37135 ft | 481 kts | 153° |
| 2026-04-28 18:51 | -24.83636 | 150.82019 | 37126 ft | 482 kts | 153° |
| 2026-04-28 18:51 | -24.89217 | 150.86114 | 37135 ft | 482 kts | 153° |
| 2026-04-28 18:52 | -24.94804 | 150.90218 | 37126 ft | 483 kts | 153° |
| 2026-04-28 18:52 | -25.00397 | 150.94331 | 37184 ft | 484 kts | 152° |
| 2026-04-28 18:53 | -25.06009 | 150.98462 | 37144 ft | 485 kts | 152° |
| 2026-04-28 18:53 | -25.11612 | 151.02594 | 37134 ft | 485 kts | 152° |
| 2026-04-28 18:54 | -25.17212 | 151.06726 | 37142 ft | 484 kts | 152° |
| 2026-04-28 18:54 | -25.22814 | 151.10864 | 37139 ft | 484 kts | 152° |
| 2026-04-28 18:55 | -25.27466 | 151.14305 | 37145 ft | 483 kts | 152° |
| 2026-04-28 18:55 | -25.34006 | 151.19147 | 37175 ft | 483 kts | 151° |
| 2026-04-28 18:56 | -25.39586 | 151.23283 | 37155 ft | 483 kts | 151° |
| 2026-04-28 18:56 | -25.45132 | 151.27399 | 37143 ft | 482 kts | 151° |
| 2026-04-28 18:57 | -25.50692 | 151.31530 | 37136 ft | 481 kts | 151° |
| 2026-04-28 18:57 | -25.56238 | 151.35654 | 37158 ft | 480 kts | 150° |
| 2026-04-28 18:58 | -25.61768 | 151.39773 | 37152 ft | 479 kts | 150° |
| 2026-04-28 18:58 | -25.67294 | 151.43893 | 37160 ft | 478 kts | 150° |
| 2026-04-28 18:59 | -25.72822 | 151.48018 | 36882 ft | 480 kts | 150° |
| 2026-04-28 18:59 | -25.75528 | 151.50164 | 36627 ft | 478 kts | 144° |
| 2026-04-28 18:59 | -25.78000 | 151.52501 | 36585 ft | 477 kts | 141° |
| 2026-04-28 19:00 | -25.80462 | 151.54966 | 36043 ft | 477 kts | 139° |
| 2026-04-28 19:00 | -25.82890 | 151.57445 | 35838 ft | 469 kts | 140° |
| 2026-04-28 19:00 | -25.85268 | 151.59875 | 35582 ft | 462 kts | 141° |
| 2026-04-28 19:00 | -25.87640 | 151.62279 | 35352 ft | 461 kts | 141° |
| 2026-04-28 19:01 | -25.90028 | 151.64679 | 35137 ft | 465 kts | 141° |
| 2026-04-28 19:01 | -25.92445 | 151.67090 | 34827 ft | 469 kts | 141° |
| 2026-04-28 19:01 | -25.94875 | 151.69507 | 34124 ft | 470 kts | 141° |
| 2026-04-28 19:01 | -25.97307 | 151.71924 | 33397 ft | 470 kts | 141° |
| 2026-04-28 19:02 | -25.99747 | 151.74351 | 32683 ft | 470 kts | 141° |
| 2026-04-28 19:02 | -26.02140 | 151.76732 | 32192 ft | 464 kts | 141° |
| 2026-04-28 19:02 | -26.04534 | 151.79118 | 31672 ft | 460 kts | 141° |
| 2026-04-28 19:02 | -26.06907 | 151.81484 | 31184 ft | 455 kts | 141° |
| 2026-04-28 19:03 | -26.09254 | 151.83826 | 30694 ft | 450 kts | 141° |
| 2026-04-28 19:03 | -26.11576 | 151.86143 | 30199 ft | 446 kts | 141° |
| 2026-04-28 19:03 | -26.13871 | 151.88435 | 29622 ft | 441 kts | 141° |
| 2026-04-28 19:03 | -26.16138 | 151.90700 | 29129 ft | 435 kts | 141° |
| 2026-04-28 19:04 | -26.18376 | 151.92937 | 28627 ft | 430 kts | 141° |
| 2026-04-28 19:04 | -26.20590 | 151.95150 | 28131 ft | 426 kts | 141° |
| 2026-04-28 19:04 | -26.22046 | 151.96607 | 27795 ft | 423 kts | 141° |
| 2026-04-28 19:04 | -26.24952 | 151.99515 | 27142 ft | 418 kts | 140° |
| 2026-04-28 19:05 | -26.27107 | 152.01674 | 26660 ft | 414 kts | 140° |
| 2026-04-28 19:05 | -26.29239 | 152.03809 | 26191 ft | 410 kts | 140° |
| 2026-04-28 19:05 | -26.31354 | 152.05930 | 25724 ft | 407 kts | 140° |
| 2026-04-28 19:05 | -26.33454 | 152.08036 | 25279 ft | 404 kts | 140° |
| 2026-04-28 19:06 | -26.35529 | 152.10119 | 24809 ft | 401 kts | 140° |
| 2026-04-28 19:06 | -26.36899 | 152.11495 | 24503 ft | 399 kts | 140° |
| 2026-04-28 19:06 | -26.39622 | 152.14229 | 23884 ft | 396 kts | 139° |
| 2026-04-28 19:06 | -26.41000 | 152.15615 | 23517 ft | 394 kts | 140° |
| 2026-04-28 19:07 | -26.43684 | 152.18314 | 22844 ft | 390 kts | 139° |
| 2026-04-28 19:07 | -26.45682 | 152.20325 | 22391 ft | 385 kts | 139° |
| 2026-04-28 19:07 | -26.47664 | 152.22320 | 21935 ft | 381 kts | 139° |
| 2026-04-28 19:07 | -26.49622 | 152.24293 | 21494 ft | 378 kts | 139° |
| 2026-04-28 19:08 | -26.51566 | 152.26252 | 21044 ft | 374 kts | 139° |
| 2026-04-28 19:08 | -26.53488 | 152.28189 | 20600 ft | 371 kts | 139° |
| 2026-04-28 19:08 | -26.55394 | 152.30112 | 20172 ft | 367 kts | 138° |
| 2026-04-28 19:08 | -26.57284 | 152.32020 | 19738 ft | 364 kts | 138° |
| 2026-04-28 19:09 | -26.59155 | 152.33908 | 19310 ft | 362 kts | 138° |
| 2026-04-28 19:09 | -26.61016 | 152.35788 | 18901 ft | 359 kts | 138° |
| 2026-04-28 19:09 | -26.62242 | 152.37026 | 18616 ft | 358 kts | 138° |
| 2026-04-28 19:09 | -26.64693 | 152.39515 | 18128 ft | 352 kts | 137° |
| 2026-04-28 19:10 | -26.66479 | 152.41353 | 17854 ft | 347 kts | 137° |
| 2026-04-28 19:10 | -26.68223 | 152.43155 | 17511 ft | 344 kts | 137° |
| 2026-04-28 19:10 | -26.69971 | 152.44961 | 17120 ft | 341 kts | 137° |
| 2026-04-28 19:10 | -26.71711 | 152.46760 | 16699 ft | 338 kts | 137° |
| 2026-04-28 19:11 | -26.73437 | 152.48544 | 16286 ft | 336 kts | 137° |
| 2026-04-28 19:11 | -26.75149 | 152.50313 | 15881 ft | 334 kts | 137° |
| 2026-04-28 19:11 | -26.76853 | 152.52074 | 15476 ft | 332 kts | 137° |
| 2026-04-28 19:11 | -26.78549 | 152.53828 | 15067 ft | 331 kts | 137° |
| 2026-04-28 19:12 | -26.79667 | 152.54985 | 14804 ft | 330 kts | 137° |
| 2026-04-28 19:12 | -26.81918 | 152.57314 | 14260 ft | 329 kts | 137° |
| 2026-04-28 19:12 | -26.83594 | 152.59048 | 13833 ft | 328 kts | 137° |
| 2026-04-28 19:12 | -26.85270 | 152.60783 | 13377 ft | 327 kts | 137° |
| 2026-04-28 19:13 | -26.86935 | 152.62508 | 12955 ft | 325 kts | 137° |
| 2026-04-28 19:13 | -26.88588 | 152.64217 | 12552 ft | 323 kts | 137° |
| 2026-04-28 19:13 | -26.90239 | 152.65917 | 12142 ft | 321 kts | 137° |
| 2026-04-28 19:13 | -26.91877 | 152.67604 | 11744 ft | 319 kts | 137° |
| 2026-04-28 19:14 | -26.93508 | 152.69284 | 11350 ft | 318 kts | 137° |
| 2026-04-28 19:14 | -26.94583 | 152.70391 | 11086 ft | 317 kts | 137° |
| 2026-04-28 19:14 | -26.96718 | 152.72593 | 10842 ft | 305 kts | 137° |
| 2026-04-28 19:14 | -26.98258 | 152.74182 | 10701 ft | 296 kts | 137° |
| 2026-04-28 19:15 | -26.99753 | 152.75726 | 10565 ft | 288 kts | 137° |
| 2026-04-28 19:15 | -27.01202 | 152.77222 | 10442 ft | 279 kts | 137° |
| 2026-04-28 19:15 | -27.02609 | 152.78677 | 10328 ft | 271 kts | 137° |
| 2026-04-28 19:15 | -27.03519 | 152.79617 | 10248 ft | 266 kts | 137° |
| 2026-04-28 19:16 | -27.05313 | 152.81473 | 9763 ft | 265 kts | 137° |
| 2026-04-28 19:16 | -27.06659 | 152.82864 | 9427 ft | 259 kts | 137° |
| 2026-04-28 19:16 | -27.07959 | 152.84209 | 9127 ft | 251 kts | 137° |
| 2026-04-28 19:16 | -27.09226 | 152.85520 | 8843 ft | 243 kts | 137° |
| 2026-04-28 19:17 | -27.10450 | 152.86787 | 8599 ft | 236 kts | 137° |
| 2026-04-28 19:17 | -27.11632 | 152.88052 | 8352 ft | 235 kts | 129° |
| 2026-04-28 19:17 | -27.12356 | 152.89679 | 8175 ft | 235 kts | 108° |
| 2026-04-28 19:17 | -27.12768 | 152.91505 | 7932 ft | 249 kts | 104° |
| 2026-04-28 19:18 | -27.13142 | 152.93434 | 7667 ft | 253 kts | 104° |
| 2026-04-28 19:18 | -27.13500 | 152.95323 | 7374 ft | 245 kts | 104° |
| 2026-04-28 19:18 | -27.13851 | 152.97165 | 7107 ft | 237 kts | 104° |
| 2026-04-28 19:18 | -27.14194 | 152.98948 | 6867 ft | 229 kts | 104° |
| 2026-04-28 19:19 | -27.14531 | 153.00678 | 6626 ft | 225 kts | 104° |
| 2026-04-28 19:19 | -27.14868 | 153.02400 | 6385 ft | 226 kts | 104° |
| 2026-04-28 19:19 | -27.15212 | 153.04148 | 6152 ft | 234 kts | 104° |
| 2026-04-28 19:19 | -27.15569 | 153.05959 | 5896 ft | 241 kts | 104° |
| 2026-04-28 19:20 | -27.15930 | 153.07792 | 5616 ft | 237 kts | 104° |
| 2026-04-28 19:20 | -27.16279 | 153.09571 | 5343 ft | 229 kts | 104° |
| 2026-04-28 19:20 | -27.16613 | 153.11266 | 5089 ft | 221 kts | 104° |
| 2026-04-28 19:20 | -27.16943 | 153.12941 | 4840 ft | 219 kts | 104° |
| 2026-04-28 19:21 | -27.17275 | 153.14623 | 4583 ft | 222 kts | 104° |
| 2026-04-28 19:21 | -27.17616 | 153.16348 | 4383 ft | 230 kts | 104° |
| 2026-04-28 19:21 | -27.17964 | 153.18113 | 4285 ft | 230 kts | 104° |
| 2026-04-28 19:21 | -27.18297 | 153.19807 | 4151 ft | 216 kts | 105° |
| 2026-04-28 19:22 | -27.18946 | 153.21237 | 3988 ft | 202 kts | 134° |
| 2026-04-28 19:22 | -27.19305 | 153.21594 | 3814 ft | 207 kts | 144° |
| 2026-04-28 19:22 | -27.21646 | 153.21986 | 3469 ft | 223 kts | 190° |
| 2026-04-28 19:22 | -27.23154 | 153.21446 | 3161 ft | 227 kts | 194° |
| 2026-04-28 19:23 | -27.24597 | 153.20798 | 2859 ft | 220 kts | 200° |
| 2026-04-28 19:23 | -27.25927 | 153.20041 | 2573 ft | 209 kts | 202° |
| 2026-04-28 19:23 | -27.27183 | 153.19312 | 2305 ft | 197 kts | 201° |
| 2026-04-28 19:23 | -27.28343 | 153.18646 | 2080 ft | 176 kts | 201° |
| 2026-04-28 19:24 | -27.29392 | 153.18046 | 1814 ft | 161 kts | 200° |
| 2026-04-28 19:24 | -27.30333 | 153.17508 | 1615 ft | 143 kts | 201° |
| 2026-04-28 19:24 | -27.31207 | 153.17010 | 1445 ft | 141 kts | 201° |
| 2026-04-28 19:24 | -27.32071 | 153.16521 | 1247 ft | 140 kts | 197° |
| 2026-04-28 19:25 | -27.32983 | 153.16111 | 936 ft | 141 kts | 199° |
| 2026-04-28 19:25 | -27.33775 | 153.15530 | 756 ft | 136 kts | 204° |
| 2026-04-28 19:25 | -27.34604 | 153.15053 | 618 ft | 137 kts | 201° |
| 2026-04-28 19:25 | -27.35503 | 153.14562 | 422 ft | 143 kts | 204° |
| 2026-04-28 19:26 | -27.36364 | 153.14068 | 257 ft | 139 kts | 204° |
| 2026-04-28 19:26 | -27.37224 | 153.13574 | 96 ft | 139 kts | 204° |
| 2026-04-28 19:26 | -27.38061 | 153.13096 | 21 ft | 122 kts | 208° |
| 2026-04-28 19:26 | -27.38625 | 153.12768 | 21 ft | 62 kts | 207° |
| 2026-04-28 19:27 | -27.38848 | 153.12630 | 22 ft | 28 kts | 214° |
| 2026-04-28 19:27 | -27.39002 | 153.12463 | 20 ft | 31 kts | 234° |
| 2026-04-28 19:27 | -27.39103 | 153.12287 | 20 ft | 16 kts | 237° |
| 2026-04-28 19:27 | -27.39195 | 153.12215 | 21 ft | 20 kts | 206° |
| 2026-04-28 19:28 | -27.39347 | 153.12128 | 21 ft | 25 kts | 208° |
| 2026-04-28 19:28 | -27.39450 | 153.12068 | 22 ft | 24 kts | 208° |
| 2026-04-28 19:28 | -27.39596 | 153.11987 | 21 ft | 23 kts | 206° |
| 2026-04-28 19:28 | -27.39736 | 153.11908 | 20 ft | 22 kts | 207° |
| 2026-04-28 19:29 | -27.39871 | 153.11830 | 21 ft | 22 kts | 207° |
| 2026-04-28 19:29 | -27.39958 | 153.11779 | 21 ft | 21 kts | 207° |
| 2026-04-28 19:29 | -27.40023 | 153.11607 | 21 ft | 19 kts | 224° |
| 2026-04-28 19:29 | -27.40140 | 153.11538 | 22 ft | 19 kts | 207° |
| 2026-04-28 19:30 | -27.40210 | 153.11435 | 20 ft | 18 kts | 297° |
| 2026-04-28 19:30 | -27.40221 | 153.11314 | 20 ft | 17 kts | 214° |
| 2026-04-28 19:30 | -27.40327 | 153.11245 | 20 ft | 21 kts | 207° |
| 2026-04-28 19:30 | -27.40484 | 153.11154 | 20 ft | 27 kts | 207° |
| 2026-04-28 19:31 | -27.40629 | 153.11035 | 23 ft | 25 kts | 231° |
| 2026-04-28 19:31 | -27.40721 | 153.10876 | 21 ft | 22 kts | 239° |
| 2026-04-28 19:31 | -27.40713 | 153.10793 | 21 ft | 10 kts | 324° |
| 2026-04-28 19:31 | -27.40676 | 153.10767 | 20 ft | 0 kts | 329° |
| 2026-04-28 19:32 | -27.40675 | 153.10766 | 20 ft | 0 kts | 329° |